Time;durP1;ratioP1;P1;durP2;ratioP2;P2;SDS_P1;SDS_P2;PMS_P1;PMS_P2;Temp;Humidity;BMP_temperature;BMP_pressure;BME280_temperature;BME280_humidity;BME280_pressure;Samples;Min_cycle;Max_cycle;Signal;HPM_P1;HPM_P2
2023/03/16 00:00:36;;;;;;;4.90;1.20;;;;;;;;;;5037990;28;20162;-65
2023/03/16 00:03:05;;;;;;;3.15;1.08;;;;;;;;;;5047846;28;20053;-66
2023/03/16 00:05:36;;;;;;;4.85;1.00;;;;;;;;;;5008773;28;20061;-62
2023/03/16 00:08:06;;;;;;;5.35;1.70;;;;;;;;;;5008567;28;20137;-71
2023/03/16 00:10:35;;;;;;;2.88;1.00;;;;;;;;;;4988779;28;20046;-66
2023/03/16 00:13:05;;;;;;;8.45;1.15;;;;;;;;;;4989070;28;20059;-67
2023/03/16 00:15:35;;;;;;;2.80;1.20;;;;;;;;;;4988830;28;20060;-66
2023/03/16 00:18:05;;;;;;;2.47;1.00;;;;;;;;;;4988720;28;20109;-71
2023/03/16 00:20:35;;;;;;;2.72;1.40;;;;;;;;;;4960618;28;20521;-70
2023/03/16 00:23:04;;;;;;;3.75;1.20;;;;;;;;;;4942466;29;20415;-65
2023/03/16 00:25:34;;;;;;;2.45;1.00;;;;;;;;;;4972854;28;20092;-66
2023/03/16 00:28:04;;;;;;;2.88;1.00;;;;;;;;;;4991201;28;20058;-66
2023/03/16 00:30:34;;;;;;;1.83;0.82;;;;;;;;;;4972787;28;20062;-65
2023/03/16 00:33:07;;;;;;;2.20;1.02;;;;;;;;;;4957505;28;20058;-62
2023/03/16 00:35:38;;;;;;;2.97;1.10;;;;;;;;;;4934385;29;20059;-66
2023/03/16 00:38:10;;;;;;;2.88;0.90;;;;;;;;;;4934902;29;20052;-67
2023/03/16 00:40:40;;;;;;;4.57;1.10;;;;;;;;;;4934351;29;20064;-68
2023/03/16 00:43:10;;;;;;;1.80;0.80;;;;;;;;;;4934221;29;20063;-67
2023/03/16 00:45:43;;;;;;;3.67;1.20;;;;;;;;;;4953410;29;20055;-66
2023/03/16 00:48:15;;;;;;;5.68;1.05;;;;;;;;;;4915415;29;20063;-63
2023/03/16 00:50:45;;;;;;;1.65;0.95;;;;;;;;;;4915261;29;20436;-67
2023/03/16 00:53:16;;;;;;;2.92;1.20;;;;;;;;;;4915332;29;20072;-65
2023/03/16 00:55:45;;;;;;;3.63;1.30;;;;;;;;;;4930924;29;20519;-68
2023/03/16 00:58:15;;;;;;;6.95;1.50;;;;;;;;;;4915421;29;20068;-63
2023/03/16 01:00:46;;;;;;;2.97;1.35;;;;;;;;;;4933667;29;20047;-69
2023/03/16 01:03:16;;;;;;;4.07;1.48;;;;;;;;;;4934076;29;20067;-69
2023/03/16 01:05:47;;;;;;;5.00;1.10;;;;;;;;;;4914670;29;20055;-65
2023/03/16 01:08:17;;;;;;;3.38;1.20;;;;;;;;;;4924908;29;20055;-66
2023/03/16 01:10:48;;;;;;;2.80;1.02;;;;;;;;;;4933943;29;20056;-65
2023/03/16 01:13:18;;;;;;;5.50;1.00;;;;;;;;;;4943926;28;20051;-66
2023/03/16 01:15:50;;;;;;;4.32;1.30;;;;;;;;;;4952353;28;20055;-65
2023/03/16 01:18:21;;;;;;;3.17;1.10;;;;;;;;;;4933621;29;20059;-65
2023/03/16 01:20:51;;;;;;;5.40;1.38;;;;;;;;;;4943152;28;20056;-65
2023/03/16 01:23:21;;;;;;;7.20;1.25;;;;;;;;;;4923952;29;20417;-65
2023/03/16 01:25:53;;;;;;;5.35;1.40;;;;;;;;;;4874148;29;20122;-67
2023/03/16 01:28:25;;;;;;;4.75;1.13;;;;;;;;;;4914445;29;20052;-69
2023/03/16 01:31:02;;;;;;;3.50;1.00;;;;;;;;;;4949238;28;20055;-71
2023/03/16 01:33:34;;;;;;;6.22;1.58;;;;;;;;;;4952511;29;20047;-65
2023/03/16 01:36:09;;;;;;;2.85;1.13;;;;;;;;;;4932848;29;20055;-66
2023/03/16 01:38:47;;;;;;;3.35;1.02;;;;;;;;;;4933160;29;20052;-64
2023/03/16 01:41:17;;;;;;;3.20;0.93;;;;;;;;;;4913973;29;20517;-70
2023/03/16 01:43:47;;;;;;;3.53;1.40;;;;;;;;;;4879429;29;20432;-72
2023/03/16 01:46:19;;;;;;;5.53;1.20;;;;;;;;;;4864121;29;20086;-62
2023/03/16 01:49:11;;;;;;;5.82;1.42;;;;;;;;;;4913931;29;20052;-65
2023/03/16 01:51:50;;;;;;;3.05;1.30;;;;;;;;;;4883865;29;20075;-65
2023/03/16 01:54:28;;;;;;;2.10;1.10;;;;;;;;;;4930146;29;20059;-69
2023/03/16 01:57:24;;;;;;;6.72;1.20;;;;;;;;;;4894994;29;20061;-63
2023/03/16 02:00:30;;;;;;;4.50;1.40;;;;;;;;;;4833973;29;20053;-72
2023/03/16 02:03:17;;;;;;;3.25;1.00;;;;;;;;;;4875919;29;20053;-64
2023/03/16 02:06:00;;;;;;;4.65;1.05;;;;;;;;;;4841258;29;20057;-66
2023/03/16 02:08:31;;;;;;;9.73;1.10;;;;;;;;;;4894578;29;20441;-66
2023/03/16 02:11:03;;;;;;;2.60;1.20;;;;;;;;;;4863580;29;20056;-68
2023/03/16 02:14:08;;;;;;;4.47;1.00;;;;;;;;;;4932571;29;20055;-61
2023/03/16 02:16:39;;;;;;;2.33;1.00;;;;;;;;;;4932552;29;20068;-65
2023/03/16 02:19:19;;;;;;;7.47;1.15;;;;;;;;;;4892001;29;20053;-69
2023/03/16 02:21:58;;;;;;;5.68;0.80;;;;;;;;;;4894512;29;20053;-65
2023/03/16 02:24:28;;;;;;;7.78;0.93;;;;;;;;;;4894174;29;20068;-70
2023/03/16 02:27:05;;;;;;;3.65;0.73;;;;;;;;;;4856784;29;20053;-63
2023/03/16 02:29:55;;;;;;;2.28;0.80;;;;;;;;;;4864967;29;20045;-63
2023/03/16 02:32:29;;;;;;;3.70;1.02;;;;;;;;;;4882126;29;20056;-65
2023/03/16 02:35:02;;;;;;;5.07;0.90;;;;;;;;;;4901042;29;20060;-70
2023/03/16 02:37:33;;;;;;;5.45;1.00;;;;;;;;;;4928613;29;20066;-61
2023/03/16 02:40:20;;;;;;;3.00;0.90;;;;;;;;;;4938081;28;20051;-67
2023/03/16 02:43:07;;;;;;;2.35;1.02;;;;;;;;;;4960156;28;20044;-63
2023/03/16 02:45:45;;;;;;;3.30;1.00;;;;;;;;;;4936527;28;20575;-67
2023/03/16 02:48:57;;;;;;;1.77;0.85;;;;;;;;;;4941770;29;20064;-63
2023/03/16 02:51:27;;;;;;;5.05;0.93;;;;;;;;;;4879106;29;20053;-62
2023/03/16 02:53:57;;;;;;;3.13;0.90;;;;;;;;;;4913094;29;20540;-62
2023/03/16 02:56:30;;;;;;;4.22;1.00;;;;;;;;;;4912406;29;20086;-65
2023/03/16 02:59:00;;;;;;;2.08;1.05;;;;;;;;;;4888663;29;20080;-69
2023/03/16 03:01:31;;;;;;;3.83;0.95;;;;;;;;;;4838620;29;20050;-65
2023/03/16 03:04:02;;;;;;;7.43;1.10;;;;;;;;;;4793483;29;20066;-72
2023/03/16 03:06:32;;;;;;;4.28;1.10;;;;;;;;;;4802033;29;20063;-80
2023/03/16 03:09:04;;;;;;;7.68;1.10;;;;;;;;;;4802851;29;20062;-68
2023/03/16 03:11:34;;;;;;;3.50;1.00;;;;;;;;;;4820082;29;20549;-69
2023/03/16 03:14:05;;;;;;;9.48;1.60;;;;;;;;;;4801643;29;20066;-65
2023/03/16 03:16:37;;;;;;;2.53;1.27;;;;;;;;;;4838172;29;20060;-67
2023/03/16 03:19:07;;;;;;;2.97;1.08;;;;;;;;;;4856727;29;20068;-65
2023/03/16 03:21:39;;;;;;;8.63;1.30;;;;;;;;;;4875021;29;20526;-64
2023/03/16 03:24:09;;;;;;;4.00;1.17;;;;;;;;;;4890213;29;20056;-64
2023/03/16 03:26:39;;;;;;;2.45;1.00;;;;;;;;;;4893844;29;20060;-62
2023/03/16 03:29:16;;;;;;;3.42;1.08;;;;;;;;;;4897703;29;20068;-61
2023/03/16 03:31:46;;;;;;;1.63;1.00;;;;;;;;;;4891359;29;20053;-62
2023/03/16 03:34:16;;;;;;;2.45;1.17;;;;;;;;;;4874768;29;20061;-64
2023/03/16 03:36:45;;;;;;;9.45;1.38;;;;;;;;;;4912238;29;20059;-61
2023/03/16 03:39:15;;;;;;;3.88;1.23;;;;;;;;;;4931067;28;20051;-69
2023/03/16 03:41:46;;;;;;;3.75;1.10;;;;;;;;;;4931338;28;20067;-65
2023/03/16 03:44:16;;;;;;;6.13;1.52;;;;;;;;;;4891526;29;20405;-68
2023/03/16 03:46:46;;;;;;;2.10;1.30;;;;;;;;;;4840524;29;20060;-65
2023/03/16 03:49:17;;;;;;;2.78;1.30;;;;;;;;;;4856084;29;20179;-67
2023/03/16 03:51:48;;;;;;;5.32;1.25;;;;;;;;;;4855864;29;20045;-65
2023/03/16 03:54:24;;;;;;;3.92;1.50;;;;;;;;;;4862757;29;20064;-63
2023/03/16 03:56:58;;;;;;;3.55;1.40;;;;;;;;;;4850143;29;20096;-64
2023/03/16 03:59:28;;;;;;;3.05;1.50;;;;;;;;;;4821274;29;20067;-64
2023/03/16 04:02:16;;;;;;;4.07;1.40;;;;;;;;;;4837891;29;20058;-66
2023/03/16 04:04:54;;;;;;;5.05;1.23;;;;;;;;;;4874275;29;20056;-64
2023/03/16 04:07:24;;;;;;;4.60;1.65;;;;;;;;;;4837419;29;20072;-71
2023/03/16 04:09:59;;;;;;;7.97;1.70;;;;;;;;;;4854437;29;20057;-65
2023/03/16 04:12:37;;;;;;;6.45;1.83;;;;;;;;;;4892989;29;20833;-64
2023/03/16 04:15:11;;;;;;;3.30;1.27;;;;;;;;;;4889495;29;20053;-64
2023/03/16 04:18:04;;;;;;;3.10;1.45;;;;;;;;;;4856336;29;20046;-66
2023/03/16 04:20:35;;;;;;;4.22;1.38;;;;;;;;;;4893005;29;20584;-66
2023/03/16 04:23:04;;;;;;;3.42;1.38;;;;;;;;;;4857521;29;20049;-67
2023/03/16 04:25:37;;;;;;;3.50;1.58;;;;;;;;;;4838221;29;20061;-64
2023/03/16 04:28:09;;;;;;;5.88;1.45;;;;;;;;;;4855728;29;20450;-65
2023/03/16 04:30:41;;;;;;;2.92;1.40;;;;;;;;;;4873876;29;20245;-68
2023/03/16 04:33:23;;;;;;;7.18;1.88;;;;;;;;;;4855924;29;20054;-64
2023/03/16 04:35:53;;;;;;;5.85;1.80;;;;;;;;;;4840879;29;20058;-62
2023/03/16 04:38:24;;;;;;;6.10;2.03;;;;;;;;;;4803573;29;20400;-64
2023/03/16 04:40:56;;;;;;;5.07;1.90;;;;;;;;;;4855626;29;20057;-72
2023/03/16 04:43:33;;;;;;;6.03;1.70;;;;;;;;;;4834315;29;20065;-67
2023/03/16 04:46:17;;;;;;;11.88;1.50;;;;;;;;;;4855346;29;20144;-65
2023/03/16 04:48:47;;;;;;;3.28;2.05;;;;;;;;;;4831906;29;20062;-65
2023/03/16 04:51:17;;;;;;;3.80;1.92;;;;;;;;;;4788508;29;20066;-64
2023/03/16 04:53:58;;;;;;;4.43;1.60;;;;;;;;;;4827422;29;20053;-68
2023/03/16 04:56:34;;;;;;;5.93;1.40;;;;;;;;;;4888269;29;20064;-69
2023/03/16 04:59:09;;;;;;;5.25;1.50;;;;;;;;;;4844432;29;20069;-68
2023/03/16 05:01:57;;;;;;;8.23;1.60;;;;;;;;;;4855493;29;20064;-64
2023/03/16 05:04:28;;;;;;;3.85;1.58;;;;;;;;;;4908470;29;20052;-64
2023/03/16 05:06:58;;;;;;;4.75;1.70;;;;;;;;;;4860639;29;20050;-65
2023/03/16 05:09:33;;;;;;;5.03;1.50;;;;;;;;;;4896245;29;20516;-60
2023/03/16 05:12:03;;;;;;;4.55;1.50;;;;;;;;;;4897278;29;20165;-67
2023/03/16 05:14:34;;;;;;;2.53;1.25;;;;;;;;;;4844906;29;20054;-64
2023/03/16 05:17:21;;;;;;;3.75;1.50;;;;;;;;;;4840216;29;20054;-64
2023/03/16 05:19:51;;;;;;;2.85;1.50;;;;;;;;;;4840310;29;20064;-64
2023/03/16 05:22:22;;;;;;;4.18;1.13;;;;;;;;;;4873599;29;20061;-63
2023/03/16 05:25:19;;;;;;;6.60;1.90;;;;;;;;;;4852242;29;20061;-66
2023/03/16 05:27:53;;;;;;;3.78;1.52;;;;;;;;;;4847569;29;20062;-71
2023/03/16 05:30:43;;;;;;;7.10;1.80;;;;;;;;;;4823755;29;20054;-60
2023/03/16 05:33:20;;;;;;;8.77;1.60;;;;;;;;;;4853724;29;20066;-65
2023/03/16 05:35:56;;;;;;;6.10;1.58;;;;;;;;;;4807043;29;20050;-67
2023/03/16 05:38:27;;;;;;;3.80;1.60;;;;;;;;;;4839637;29;20062;-63
2023/03/16 05:41:00;;;;;;;4.97;1.85;;;;;;;;;;4876894;29;20206;-65
2023/03/16 05:43:56;;;;;;;6.63;1.73;;;;;;;;;;4870969;29;20407;-68
2023/03/16 05:46:36;;;;;;;5.93;2.00;;;;;;;;;;4862869;29;20066;-67
2023/03/16 05:49:07;;;;;;;2.72;1.70;;;;;;;;;;4812256;29;20066;-70
2023/03/16 05:51:37;;;;;;;5.63;2.05;;;;;;;;;;4821378;29;20050;-63
2023/03/16 05:54:07;;;;;;;4.47;1.95;;;;;;;;;;4839530;29;20495;-64
2023/03/16 05:56:44;;;;;;;13.52;2.08;;;;;;;;;;4866081;29;20931;-65
2023/03/16 05:59:16;;;;;;;3.42;2.00;;;;;;;;;;4879763;29;20052;-73
2023/03/16 06:01:52;;;;;;;6.53;1.92;;;;;;;;;;4913670;29;20413;-64
2023/03/16 06:04:22;;;;;;;9.38;2.22;;;;;;;;;;4916245;29;20063;-63
2023/03/16 06:06:52;;;;;;;3.88;1.92;;;;;;;;;;4932341;29;20062;-69
2023/03/16 06:09:26;;;;;;;8.93;2.20;;;;;;;;;;4932356;29;20051;-64
2023/03/16 06:11:56;;;;;;;7.72;2.28;;;;;;;;;;4885181;29;20070;-71
2023/03/16 06:14:26;;;;;;;9.40;2.38;;;;;;;;;;4832626;29;20057;-62
2023/03/16 06:16:55;;;;;;;6.00;2.58;;;;;;;;;;4859336;29;20053;-64
2023/03/16 06:19:25;;;;;;;4.00;1.77;;;;;;;;;;4857253;29;20057;-65
2023/03/16 06:21:59;;;;;;;6.00;2.20;;;;;;;;;;4793885;29;20429;-61
2023/03/16 06:24:30;;;;;;;6.05;2.20;;;;;;;;;;4820455;29;20062;-68
2023/03/16 06:27:00;;;;;;;8.38;2.22;;;;;;;;;;4883099;29;20057;-67
2023/03/16 06:29:36;;;;;;;6.13;2.03;;;;;;;;;;4878566;29;20065;-61
2023/03/16 06:32:06;;;;;;;4.35;1.88;;;;;;;;;;4865107;29;20546;-67
2023/03/16 06:34:36;;;;;;;9.05;2.17;;;;;;;;;;4824912;29;20067;-64
2023/03/16 06:37:07;;;;;;;7.55;2.55;;;;;;;;;;4838435;29;20054;-63
2023/03/16 06:39:38;;;;;;;3.50;1.58;;;;;;;;;;4820081;29;20416;-62
2023/03/16 06:42:07;;;;;;;4.88;2.25;;;;;;;;;;4839687;29;20049;-66
2023/03/16 06:44:38;;;;;;;5.75;2.50;;;;;;;;;;4894247;29;20497;-61
2023/03/16 06:47:12;;;;;;;5.25;2.30;;;;;;;;;;4922461;29;20419;-66
2023/03/16 06:49:42;;;;;;;7.70;2.20;;;;;;;;;;4951151;29;20081;-64
2023/03/16 06:52:16;;;;;;;8.07;2.13;;;;;;;;;;4931349;29;20051;-61
2023/03/16 06:54:46;;;;;;;4.32;2.20;;;;;;;;;;4921427;29;20227;-60
2023/03/16 06:57:18;;;;;;;4.40;2.30;;;;;;;;;;4912661;29;20052;-60
2023/03/16 06:59:50;;;;;;;7.32;2.22;;;;;;;;;;4912789;29;20056;-64
2023/03/16 07:02:22;;;;;;;9.57;2.47;;;;;;;;;;4905858;29;20045;-64
2023/03/16 07:04:52;;;;;;;8.27;2.40;;;;;;;;;;4878611;29;20057;-64
2023/03/16 07:07:23;;;;;;;6.25;2.22;;;;;;;;;;4887244;29;20048;-60
2023/03/16 07:09:53;;;;;;;6.07;2.53;;;;;;;;;;4931161;29;20432;-65
2023/03/16 07:12:23;;;;;;;14.23;4.72;;;;;;;;;;4921678;29;20209;-69
2023/03/16 07:14:53;;;;;;;31.20;10.23;;;;;;;;;;4931652;29;20415;-60
2023/03/16 07:17:25;;;;;;;17.27;4.88;;;;;;;;;;4915570;29;20063;-66
2023/03/16 07:19:55;;;;;;;13.02;3.92;;;;;;;;;;4921359;29;20056;-64
2023/03/16 07:22:25;;;;;;;16.25;6.10;;;;;;;;;;4937214;28;20051;-83
2023/03/16 07:24:56;;;;;;;22.10;5.45;;;;;;;;;;4912536;29;20056;-60
2023/03/16 07:27:28;;;;;;;12.50;4.68;;;;;;;;;;4892471;29;20064;-82
2023/03/16 07:30:03;;;;;;;13.68;4.40;;;;;;;;;;4874260;29;20057;-64
2023/03/16 07:32:36;;;;;;;14.52;4.38;;;;;;;;;;4848434;29;20532;-66
2023/03/16 07:35:07;;;;;;;17.20;4.35;;;;;;;;;;4842344;29;20077;-64
2023/03/16 07:37:38;;;;;;;10.55;4.35;;;;;;;;;;4856319;29;20064;-64
2023/03/16 07:40:09;;;;;;;10.82;3.88;;;;;;;;;;4862466;29;20053;-65
2023/03/16 07:42:41;;;;;;;8.30;3.83;;;;;;;;;;4836633;29;20050;-64
2023/03/16 07:45:16;;;;;;;10.20;3.80;;;;;;;;;;4817213;29;20508;-63
2023/03/16 07:47:47;;;;;;;9.27;3.22;;;;;;;;;;4837501;29;20543;-69
2023/03/16 07:50:37;;;;;;;7.70;3.13;;;;;;;;;;4839240;29;20065;-63
2023/03/16 07:53:08;;;;;;;8.57;3.13;;;;;;;;;;4812107;29;20057;-67
2023/03/16 07:55:41;;;;;;;8.25;2.92;;;;;;;;;;4874762;29;20518;-64
2023/03/16 07:58:12;;;;;;;9.88;3.50;;;;;;;;;;4861110;29;20589;-63
2023/03/16 08:00:43;;;;;;;;;;;;;;;;;;4883217;29;20053;-72
2023/03/16 08:03:12;;;;;;;7.45;2.97;;;;;;;;;;4906987;29;20359;-64
2023/03/16 08:05:44;;;;;;;9.93;2.92;;;;;;;;;;4921389;29;20059;-64
2023/03/16 08:08:16;;;;;;;8.45;3.38;;;;;;;;;;4939871;29;20066;-62
2023/03/16 08:10:53;;;;;;;12.35;3.78;;;;;;;;;;4904536;29;20067;-68
2023/03/16 08:13:34;;;;;;;11.20;3.92;;;;;;;;;;4878585;29;20053;-67
2023/03/16 08:16:09;;;;;;;11.93;3.90;;;;;;;;;;4911790;29;20060;-65
2023/03/16 08:18:41;;;;;;;11.18;4.05;;;;;;;;;;4842827;29;20057;-66
2023/03/16 08:21:11;;;;;;;10.00;4.18;;;;;;;;;;4840384;29;20407;-69
2023/03/16 08:23:42;;;;;;;11.75;3.80;;;;;;;;;;4813901;29;20056;-62
2023/03/16 08:26:12;;;;;;;10.43;3.75;;;;;;;;;;4763885;29;20057;-68
2023/03/16 08:28:46;;;;;;;10.48;3.50;;;;;;;;;;4782755;30;20055;-65
2023/03/16 08:31:18;;;;;;;9.48;3.05;;;;;;;;;;4785565;29;20055;-66
2023/03/16 08:33:58;;;;;;;9.70;2.92;;;;;;;;;;4796293;29;20051;-64
2023/03/16 08:36:30;;;;;;;5.85;2.97;;;;;;;;;;4793784;29;20060;-64
2023/03/16 08:39:01;;;;;;;5.20;2.60;;;;;;;;;;4787326;29;20505;-64
2023/03/16 08:41:42;;;;;;;7.97;2.92;;;;;;;;;;4804082;29;20062;-63
2023/03/16 08:44:24;;;;;;;5.82;2.70;;;;;;;;;;4785663;29;20058;-60
2023/03/16 08:46:54;;;;;;;5.90;2.63;;;;;;;;;;4787953;29;20260;-64
2023/03/16 08:49:26;;;;;;;6.30;3.10;;;;;;;;;;4770372;30;20070;-68
2023/03/16 08:52:05;;;;;;;6.28;2.58;;;;;;;;;;4815693;29;20589;-64
2023/03/16 08:54:35;;;;;;;9.35;2.78;;;;;;;;;;4807408;29;20062;-61
2023/03/16 08:57:05;;;;;;;9.00;2.80;;;;;;;;;;4773240;29;20073;-67
2023/03/16 08:59:35;;;;;;;7.82;3.30;;;;;;;;;;4793194;29;20412;-63
2023/03/16 09:02:05;;;;;;;7.75;3.20;;;;;;;;;;4803326;29;20614;-65
2023/03/16 09:04:36;;;;;;;5.35;2.72;;;;;;;;;;4836051;29;20530;-64
2023/03/16 09:07:07;;;;;;;7.63;3.13;;;;;;;;;;4824047;29;20057;-69
2023/03/16 09:09:38;;;;;;;8.05;3.78;;;;;;;;;;4845181;29;20061;-64
2023/03/16 09:12:08;;;;;;;11.32;3.22;;;;;;;;;;4840562;29;20058;-72
2023/03/16 09:14:39;;;;;;;8.48;3.22;;;;;;;;;;4868488;29;20584;-63
2023/03/16 09:17:10;;;;;;;7.03;3.05;;;;;;;;;;4915097;29;20054;-66
2023/03/16 09:19:40;;;;;;;6.93;3.22;;;;;;;;;;4976968;28;20066;-64
2023/03/16 09:22:30;;;;;;;6.95;3.33;;;;;;;;;;4998818;28;20524;-64
2023/03/16 09:25:00;;;;;;;6.60;3.05;;;;;;;;;;5031163;28;20049;-61
2023/03/16 09:27:30;;;;;;;6.97;3.20;;;;;;;;;;5044078;28;20053;-64
2023/03/16 09:30:01;;;;;;;7.63;3.22;;;;;;;;;;5051091;28;20048;-61
2023/03/16 09:32:32;;;;;;;6.68;3.00;;;;;;;;;;4981706;28;20141;-64
2023/03/16 09:35:05;;;;;;;10.27;3.30;;;;;;;;;;5031288;28;20527;-61
2023/03/16 09:37:35;;;;;;;10.55;3.25;;;;;;;;;;5030659;28;20062;-64
2023/03/16 09:40:40;;;;;;;12.70;3.25;;;;;;;;;;4998025;28;20045;-64
2023/03/16 09:43:57;;;;;;;11.32;3.47;;;;;;;;;;4972103;28;20066;-62
2023/03/16 09:46:32;;;;;;;7.60;3.17;;;;;;;;;;4933547;29;20566;-63
2023/03/16 09:49:04;;;;;;;7.03;3.38;;;;;;;;;;4918332;29;20064;-64
2023/03/16 09:51:52;;;;;;;6.85;3.83;;;;;;;;;;4914417;29;20507;-62
2023/03/16 09:54:49;;;;;;;7.60;3.22;;;;;;;;;;4914525;29;20064;-63
2023/03/16 09:57:29;;;;;;;6.35;2.42;;;;;;;;;;4914257;29;20052;-65
2023/03/16 10:00:19;;;;;;;6.43;2.90;;;;;;;;;;4914313;29;20424;-63
2023/03/16 10:03:00;;;;;;;9.38;2.60;;;;;;;;;;4913836;29;20084;-62
2023/03/16 10:05:32;;;;;;;5.35;3.22;;;;;;;;;;4914430;29;20048;-63
2023/03/16 10:08:15;;;;;;;8.18;2.53;;;;;;;;;;4882642;29;20138;-63
2023/03/16 10:11:14;;;;;;;10.57;2.50;;;;;;;;;;4914217;29;20067;-63
2023/03/16 10:14:10;;;;;;;3.92;2.17;;;;;;;;;;4914122;29;20067;-64
2023/03/16 10:16:49;;;;;;;5.57;2.42;;;;;;;;;;4913872;29;20055;-62
2023/03/16 10:19:53;;;;;;;7.20;2.10;;;;;;;;;;4920621;29;20431;-62
2023/03/16 10:22:32;;;;;;;7.50;2.55;;;;;;;;;;4999698;28;20065;-63
2023/03/16 10:25:08;;;;;;;5.00;2.30;;;;;;;;;;5030049;28;20505;-64
2023/03/16 10:27:42;;;;;;;5.65;2.10;;;;;;;;;;5029852;28;20551;-65
2023/03/16 10:30:17;;;;;;;11.20;2.00;;;;;;;;;;5030055;28;20552;-64
2023/03/16 10:32:48;;;;;;;9.15;1.75;;;;;;;;;;5030062;28;20049;-61
2023/03/16 10:36:01;;;;;;;7.43;1.65;;;;;;;;;;4997062;28;20057;-64
2023/03/16 10:38:37;;;;;;;2.65;1.58;;;;;;;;;;4980786;28;20057;-62
2023/03/16 10:41:24;;;;;;;7.18;2.03;;;;;;;;;;4980607;28;20513;-63
2023/03/16 10:44:06;;;;;;;6.13;1.45;;;;;;;;;;5029833;28;20056;-69
2023/03/16 10:46:40;;;;;;;5.22;1.60;;;;;;;;;;5029481;28;20045;-66
2023/03/16 10:49:26;;;;;;;4.28;1.48;;;;;;;;;;5029751;28;20045;-64
2023/03/16 10:52:01;;;;;;;3.22;1.40;;;;;;;;;;5029640;28;20052;-65
2023/03/16 10:54:39;;;;;;;4.68;1.20;;;;;;;;;;4980580;28;20443;-64
2023/03/16 10:57:28;;;;;;;6.70;1.35;;;;;;;;;;4996927;28;20060;-63
2023/03/16 11:00:13;;;;;;;3.42;1.20;;;;;;;;;;5031848;28;20060;-63
2023/03/16 11:02:43;;;;;;;2.60;1.10;;;;;;;;;;5068610;28;20060;-70
2023/03/16 11:05:15;;;;;;;4.07;1.40;;;;;;;;;;5069086;28;20060;-66
2023/03/16 11:07:58;;;;;;;2.28;1.05;;;;;;;;;;5069138;28;20057;-63
2023/03/16 11:10:34;;;;;;;3.22;1.05;;;;;;;;;;5069275;28;20048;-64
2023/03/16 11:13:21;;;;;;;3.80;1.15;;;;;;;;;;5069193;28;20064;-61
2023/03/16 11:16:10;;;;;;;5.65;1.13;;;;;;;;;;5035398;28;20052;-62
2023/03/16 11:18:46;;;;;;;3.35;0.85;;;;;;;;;;5019548;28;20572;-66
2023/03/16 11:21:30;;;;;;;2.90;1.25;;;;;;;;;;5035824;28;20528;-60
2023/03/16 11:24:03;;;;;;;3.25;1.40;;;;;;;;;;5069149;28;20058;-66
2023/03/16 11:26:41;;;;;;;1.73;0.98;;;;;;;;;;5019574;28;20578;-71
2023/03/16 11:29:17;;;;;;;6.22;1.40;;;;;;;;;;5069072;28;20523;-63
2023/03/16 11:31:55;;;;;;;7.10;1.70;;;;;;;;;;5068815;28;20064;-61
2023/03/16 11:34:29;;;;;;;5.22;1.50;;;;;;;;;;5051973;28;20048;-64
2023/03/16 11:37:28;;;;;;;3.70;1.30;;;;;;;;;;5019881;28;20056;-65
2023/03/16 11:40:28;;;;;;;15.50;7.80;;;;;;;;;;5041187;28;20060;-66
2023/03/16 11:43:08;;;;;;;15.65;7.10;;;;;;;;;;4996361;28;20064;-63
2023/03/16 11:46:01;;;;;;;6.80;2.60;;;;;;;;;;5028595;28;20456;-64
2023/03/16 11:48:35;;;;;;;3.90;1.70;;;;;;;;;;4995860;28;20056;-64
2023/03/16 11:51:35;;;;;;;2.67;1.00;;;;;;;;;;4995399;28;20049;-64
2023/03/16 11:54:36;;;;;;;6.25;1.50;;;;;;;;;;4956759;28;20058;-62
2023/03/16 11:57:27;;;;;;;3.45;1.27;;;;;;;;;;4989271;28;20054;-65
2023/03/16 12:00:02;;;;;;;5.22;1.80;;;;;;;;;;4989176;28;20073;-67
2023/03/16 12:03:08;;;;;;;4.13;1.50;;;;;;;;;;4989821;28;20058;-63
2023/03/16 12:05:44;;;;;;;3.22;1.50;;;;;;;;;;4969454;28;20050;-68
2023/03/16 12:08:14;;;;;;;3.75;1.23;;;;;;;;;;4928253;29;20059;-63
2023/03/16 12:11:05;;;;;;;4.85;1.50;;;;;;;;;;4949359;28;20059;-59
2023/03/16 12:13:59;;;;;;;4.43;1.40;;;;;;;;;;4949898;28;20058;-64
2023/03/16 12:16:37;;;;;;;4.90;1.40;;;;;;;;;;4955943;28;20082;-63
2023/03/16 12:19:23;;;;;;;2.58;1.13;;;;;;;;;;4960593;28;20050;-60
2023/03/16 12:22:07;;;;;;;4.63;1.50;;;;;;;;;;4992937;28;20054;-65
2023/03/16 12:24:45;;;;;;;4.50;1.70;;;;;;;;;;4944630;28;20596;-63
2023/03/16 12:27:24;;;;;;;3.75;1.40;;;;;;;;;;5012299;28;20494;-63
2023/03/16 12:30:24;;;;;;;3.08;1.17;;;;;;;;;;5013405;28;20054;-64
2023/03/16 12:33:13;;;;;;;4.30;1.60;;;;;;;;;;5031957;28;20502;-59
2023/03/16 12:35:55;;;;;;;4.13;1.40;;;;;;;;;;5011520;28;20042;-65
2023/03/16 12:39:02;;;;;;;1.75;1.02;;;;;;;;;;4989407;28;20422;-65
2023/03/16 12:41:41;;;;;;;3.17;1.05;;;;;;;;;;5002244;28;20050;-63
2023/03/16 12:44:39;;;;;;;1.52;0.88;;;;;;;;;;5006105;28;20058;-65
2023/03/16 12:47:24;;;;;;;2.90;0.90;;;;;;;;;;5030726;28;20532;-66
2023/03/16 12:50:02;;;;;;;6.78;1.75;;;;;;;;;;5031380;28;20050;-62
2023/03/16 12:52:52;;;;;;;2.08;1.00;;;;;;;;;;5030930;28;20065;-68
2023/03/16 12:55:39;;;;;;;3.60;0.95;;;;;;;;;;5014675;28;20519;-62
2023/03/16 12:58:11;;;;;;;3.35;1.10;;;;;;;;;;4998079;28;20552;-69
2023/03/16 13:00:41;;;;;;;2.00;1.02;;;;;;;;;;4984827;28;20061;-62
2023/03/16 13:03:18;;;;;;;5.93;1.30;;;;;;;;;;5030443;28;20057;-64
2023/03/16 13:05:56;;;;;;;2.33;1.00;;;;;;;;;;5031082;28;20057;-64
2023/03/16 13:08:27;;;;;;;3.97;1.20;;;;;;;;;;4981407;28;20064;-65
2023/03/16 13:11:06;;;;;;;2.28;1.17;;;;;;;;;;5014312;28;20057;-63
2023/03/16 13:13:51;;;;;;;3.92;1.15;;;;;;;;;;5026867;28;20060;-63
2023/03/16 13:16:39;;;;;;;1.67;0.93;;;;;;;;;;5013826;28;20092;-66
2023/03/16 13:19:28;;;;;;;3.22;1.20;;;;;;;;;;5012628;28;20053;-64
2023/03/16 13:22:26;;;;;;;4.30;1.00;;;;;;;;;;5010566;28;20053;-61
2023/03/16 13:25:00;;;;;;;2.15;1.00;;;;;;;;;;5027814;28;20061;-61
2023/03/16 13:27:35;;;;;;;3.50;1.00;;;;;;;;;;5006075;28;20501;-62
2023/03/16 13:30:27;;;;;;;3.05;1.00;;;;;;;;;;5010458;28;20046;-67
2023/03/16 13:33:12;;;;;;;2.38;0.68;;;;;;;;;;5007723;28;20064;-63
2023/03/16 13:35:42;;;;;;;2.60;0.70;;;;;;;;;;4960026;28;20429;-63
2023/03/16 13:38:17;;;;;;;4.70;1.08;;;;;;;;;;4993740;28;20057;-63
2023/03/16 13:40:53;;;;;;;1.73;0.90;;;;;;;;;;5010565;28;20556;-63
2023/03/16 13:43:28;;;;;;;3.75;1.85;;;;;;;;;;5010734;28;20050;-62
2023/03/16 13:45:59;;;;;;;3.80;1.55;;;;;;;;;;4977213;28;20050;-67
2023/03/16 13:48:29;;;;;;;3.55;2.28;;;;;;;;;;4981602;28;20054;-62
2023/03/16 13:50:58;;;;;;;3.90;1.10;;;;;;;;;;5009908;28;20060;-62
2023/03/16 13:53:32;;;;;;;3.88;1.23;;;;;;;;;;4999040;28;20058;-65
2023/03/16 13:56:03;;;;;;;1.60;0.82;;;;;;;;;;4978866;28;20070;-68
2023/03/16 13:58:36;;;;;;;2.22;0.95;;;;;;;;;;5009641;28;20057;-64
2023/03/16 14:01:25;;;;;;;1.25;0.80;;;;;;;;;;5010137;28;20097;-68
2023/03/16 14:03:59;;;;;;;11.80;1.52;;;;;;;;;;5028841;28;20539;-65
2023/03/16 14:06:30;;;;;;;11.13;2.15;;;;;;;;;;5048485;28;20065;-63
2023/03/16 14:09:03;;;;;;;2.88;0.80;;;;;;;;;;5000575;28;20053;-64
2023/03/16 14:11:33;;;;;;;1.95;0.90;;;;;;;;;;5029511;28;20549;-62
2023/03/16 14:14:16;;;;;;;3.83;1.40;;;;;;;;;;5029489;28;20069;-64
2023/03/16 14:16:47;;;;;;;3.28;1.25;;;;;;;;;;4978062;28;20058;-64
2023/03/16 14:19:24;;;;;;;2.22;1.00;;;;;;;;;;5028074;28;20057;-65
2023/03/16 14:21:54;;;;;;;1.92;0.85;;;;;;;;;;4996495;28;20060;-69
2023/03/16 14:24:30;;;;;;;3.22;1.00;;;;;;;;;;5029140;28;20056;-65
2023/03/16 14:27:42;;;;;;;1.98;0.90;;;;;;;;;;5055426;28;20420;-67
2023/03/16 14:30:24;;;;;;;2.05;1.13;;;;;;;;;;4960683;28;20057;-66
2023/03/16 14:33:01;;;;;;;6.75;1.33;;;;;;;;;;5009728;28;20057;-62
2023/03/16 14:35:40;;;;;;;5.15;1.45;;;;;;;;;;4976859;28;20053;-64
2023/03/16 14:38:34;;;;;;;1.73;0.82;;;;;;;;;;5009217;28;20053;-65
2023/03/16 14:41:08;;;;;;;3.17;1.05;;;;;;;;;;4960702;28;20046;-65
2023/03/16 14:43:58;;;;;;;2.33;0.95;;;;;;;;;;4977929;28;20421;-65
2023/03/16 14:46:39;;;;;;;2.72;0.95;;;;;;;;;;4977072;28;20057;-65
2023/03/16 14:49:36;;;;;;;1.95;0.75;;;;;;;;;;5019204;28;20524;-65
2023/03/16 14:52:16;;;;;;;2.53;0.90;;;;;;;;;;5028979;28;20037;-67
2023/03/16 14:54:46;;;;;;;2.85;0.82;;;;;;;;;;5029567;28;20045;-64
2023/03/16 14:57:18;;;;;;;2.67;1.00;;;;;;;;;;4977478;28;20057;-65
2023/03/16 14:59:48;;;;;;;1.83;0.90;;;;;;;;;;5029199;28;20057;-63
2023/03/16 15:02:32;;;;;;;5.25;1.00;;;;;;;;;;5029139;28;20421;-65
2023/03/16 15:05:03;;;;;;;1.67;0.90;;;;;;;;;;5024950;28;20050;-66
2023/03/16 15:07:37;;;;;;;2.35;0.88;;;;;;;;;;5046833;28;20049;-66
2023/03/16 15:10:29;;;;;;;1.80;0.75;;;;;;;;;;4999773;28;20061;-65
2023/03/16 15:13:12;;;;;;;1.73;0.80;;;;;;;;;;5037059;28;20461;-65
2023/03/16 15:15:42;;;;;;;3.80;0.70;;;;;;;;;;5031267;28;20390;-66
2023/03/16 15:18:12;;;;;;;2.72;0.80;;;;;;;;;;5029586;28;20049;-68
2023/03/16 15:20:44;;;;;;;3.95;0.85;;;;;;;;;;5041322;28;20456;-68
2023/03/16 15:23:16;;;;;;;3.95;0.65;;;;;;;;;;5014909;28;20052;-63
2023/03/16 15:25:48;;;;;;;1.45;0.63;;;;;;;;;;5031897;28;20449;-65
2023/03/16 15:28:21;;;;;;;1.55;0.82;;;;;;;;;;5013828;28;20045;-70
2023/03/16 15:30:56;;;;;;;1.67;0.70;;;;;;;;;;5019769;28;20050;-66
2023/03/16 15:33:26;;;;;;;1.48;0.73;;;;;;;;;;5040168;28;20045;-67
2023/03/16 15:35:58;;;;;;;2.25;1.02;;;;;;;;;;5037846;28;20056;-66
2023/03/16 15:38:35;;;;;;;1.17;0.82;;;;;;;;;;5037813;28;20050;-72